| time (UTC) | temp C | wind direction | speed KPH | gust KPH | rain 1hr cm | rain 24hr cm | rain mn cm | humidity % | barometer mb |
| 20260510220100 | 21 | 0 | 0.0 | 3.2 | 0.00 | 0.08 | 0.00 | 69 | 1013.3 |
| 20260510214553 | 21 | 0 | 0.0 | 4.8 | 0.00 | 0.33 | 0.00 | 69 | 1013.2 |
| 20260510213054 | 21 | 0 | 0.0 | 4.8 | 0.00 | 0.33 | 0.00 | 70 | 1013.0 |
| 20260510211556 | 22 | 0 | 0.0 | 3.2 | 0.00 | 0.33 | 0.00 | 69 | 1012.6 |
| 20260510210052 | 22 | 0 | 0.0 | 4.8 | 0.00 | 0.33 | 0.00 | 66 | 1012.5 |
| 20260510204556 | 23 | 0 | 0.0 | 6.4 | 0.00 | 0.33 | 0.00 | 60 | 1012.2 |
| 20260510203055 | 24 | 302 | 0.0 | 11.3 | 0.00 | 0.33 | 0.00 | 51 | 1012.1 |
| 20260510201608 | 25 | 307 | 1.6 | 9.7 | 0.00 | 0.33 | 0.00 | 51 | 1012.1 |
| 20260510200052 | 25 | 308 | 1.6 | 8.0 | 0.00 | 0.33 | 0.00 | 51 | 1012.0 |
| 20260510194552 | 25 | 305 | 3.2 | 14.5 | 0.00 | 0.33 | 0.00 | 51 | 1012.2 |
| 20260510193051 | 25 | 311 | 3.2 | 9.7 | 0.00 | 0.33 | 0.00 | 52 | 1012.2 |
| 20260510191607 | 25 | 0 | 3.2 | 8.0 | 0.00 | 0.33 | 0.00 | 57 | 1012.4 |
| 20260510190103 | 25 | 0 | 0.0 | 6.4 | 0.00 | 0.33 | 0.00 | 57 | 1012.3 |
| 20260510184559 | 24 | 0 | 0.0 | 3.2 | 0.00 | 0.41 | 0.00 | 62 | 1012.4 |
| 20260510183100 | 23 | 306 | 3.2 | 8.0 | 0.00 | 0.41 | 0.00 | 61 | 1012.4 |
| 20260510181559 | 23 | 0 | 0.0 | 8.0 | 0.00 | 0.41 | 0.00 | 62 | 1012.4 |
| 20260510180058 | 23 | 308 | 1.6 | 8.0 | 0.00 | 0.41 | 0.00 | 62 | 1012.5 |
| 20260510174558 | 22 | 336 | 0.0 | 3.2 | 0.00 | 0.41 | 0.00 | 67 | 1012.5 |
| 20260510173102 | 22 | 336 | 3.2 | 6.4 | 0.00 | 0.41 | 0.00 | 65 | 1012.5 |
| 20260510171558 | 21 | 0 | 1.6 | 8.0 | 0.00 | 0.41 | 0.00 | 67 | 1012.3 |
| 20260510170135 | 21 | 0 | 0.0 | 3.2 | 0.00 | 0.41 | 0.00 | 71 | 1012.6 |
| 20260510164554 | 20 | 0 | 1.6 | 4.8 | 0.00 | 0.41 | 0.00 | 72 | 1012.8 |
| 20260510163055 | 20 | 0 | 0.0 | 4.8 | 0.00 | 0.41 | 0.00 | 78 | 1013.1 |
| 20260510161605 | 18 | 343 | 1.6 | 4.8 | 0.00 | 0.41 | 0.00 | 78 | 1013.0 |
| 20260510160133 | 17 | 0 | 1.6 | 4.8 | 0.00 | 0.41 | 0.00 | 81 | 1013.4 |
| 20260510154600 | 17 | 343 | 0.0 | 4.8 | 0.00 | 0.41 | 0.00 | 85 | 1013.4 |
| 20260510153055 | 16 | 0 | 0.0 | 4.8 | 0.00 | 0.41 | 0.00 | 86 | 1013.5 |
| 20260510151553 | 15 | 343 | 0.0 | 3.2 | 0.00 | 0.41 | 0.00 | 90 | 1013.5 |
| 20260510150054 | 15 | 343 | 1.6 | 6.4 | 0.00 | 0.41 | 0.00 | 89 | 1013.4 |
| 20260510144556 | 15 | 0 | 0.0 | 3.2 | 0.00 | 0.41 | 0.00 | 92 | 1013.5 |
| 20260510143056 | 14 | 0 | 0.0 | 1.6 | 0.00 | 0.41 | 0.00 | 93 | 1013.5 |
| 20260510141554 | 13 | 0 | 0.0 | 3.2 | 0.00 | 0.41 | 0.00 | 93 | 1013.5 |
| 20260510134604 | 13 | 0 | 0.0 | 4.8 | 0.00 | 0.41 | 0.00 | 93 | 1013.3 |
| 20260510133056 | 13 | 0 | 0.0 | 3.2 | 0.00 | 0.41 | 0.00 | 93 | 1013.5 |
| 20260510131555 | 13 | 0 | 0.0 | 1.6 | 0.00 | 0.41 | 0.00 | 93 | 1013.2 |
| 20260510130054 | 13 | 343 | 0.0 | 1.6 | 0.00 | 0.41 | 0.00 | 94 | 1012.9 |
| 20260510124553 | 12 | 0 | 0.0 | 0.0 | 0.00 | 0.41 | 0.00 | 94 | 1012.8 |
| 20260510123055 | 12 | 0 | 0.0 | 1.6 | 0.00 | 0.41 | 0.00 | 94 | 1012.6 |
| 20260510121556 | 12 | 0 | 0.0 | 1.6 | 0.00 | 0.41 | 0.00 | 94 | 1012.6 |
| 20260510120054 | 12 | 0 | 0.0 | 1.6 | 0.00 | 0.41 | 0.00 | 94 | 1012.5 |
| 20260510114552 | 12 | 0 | 0.0 | 0.0 | 0.00 | 0.41 | 0.00 | 94 | 1012.4 |
| 20260510113055 | 12 | 0 | 0.0 | 0.0 | 0.00 | 0.41 | 0.00 | 94 | 1012.2 |
| 20260510111608 | 12 | 0 | 0.0 | 1.6 | 0.00 | 0.41 | 0.00 | 94 | 1012.3 |
| 20260510110052 | 12 | 0 | 0.0 | 0.0 | 0.00 | 0.41 | 0.00 | 94 | 1012.1 |
| 20260510104553 | 11 | 0 | 0.0 | 1.6 | 0.00 | 0.41 | 0.00 | 94 | 1011.7 |
| 20260510103055 | 11 | 0 | 0.0 | 3.2 | 0.00 | 0.41 | 0.00 | 94 | 1011.7 |
| 20260510101554 | 11 | 0 | 0.0 | 1.6 | 0.00 | 0.41 | 0.00 | 93 | 1011.8 |
| 20260510100057 | 11 | 0 | 0.0 | 1.6 | 0.00 | 0.41 | 0.00 | 93 | 1011.7 |
| 20260510094553 | 11 | 0 | 0.0 | 4.8 | 0.00 | 0.41 | 0.00 | 93 | 1011.7 |
| 20260510093110 | 11 | 0 | 0.0 | 4.8 | 0.00 | 0.41 | 0.00 | 93 | 1012.0 |
| 20260510091552 | 11 | 0 | 0.0 | 4.8 | 0.00 | 0.41 | 0.00 | 93 | 1011.9 |
| 20260510090109 | 11 | 0 | 0.0 | 6.4 | 0.00 | 0.41 | 0.00 | 93 | 1012.0 |
| 20260510084554 | 11 | 0 | 0.0 | 3.2 | 0.00 | 0.41 | 0.00 | 93 | 1011.5 |
| 20260510083108 | 11 | 0 | 0.0 | 3.2 | 0.00 | 0.41 | 0.00 | 93 | 1011.4 |
| 20260510081608 | 11 | 0 | 0.0 | 3.2 | 0.00 | 0.41 | 0.00 | 93 | 1011.3 |
| 20260510080056 | 11 | 344 | 0.0 | 3.2 | 0.00 | 0.41 | 0.00 | 93 | 1011.2 |
| 20260510074615 | 11 | 0 | 0.0 | 1.6 | 0.00 | 0.41 | 0.00 | 93 | 1011.2 |
| 20260510073056 | 10 | 0 | 0.0 | 3.2 | 0.00 | 0.41 | 0.00 | 93 | 1011.1 |
| 20260510071554 | 10 | 0 | 0.0 | 1.6 | 0.00 | 0.41 | 0.00 | 93 | 1011.0 |
| 20260510070056 | 10 | 0 | 0.0 | 0.0 | 0.00 | 0.41 | 0.00 | 93 | 1010.9 |
| 20260510064603 | 10 | 0 | 0.0 | 0.0 | 0.00 | 0.41 | 0.00 | 92 | 1010.6 |
| 20260510063057 | 10 | 0 | 0.0 | 0.0 | 0.00 | 0.41 | 0.00 | 92 | 1010.6 |
| 20260510061556 | 10 | 0 | 0.0 | 0.0 | 0.00 | 0.41 | 0.00 | 92 | 1010.8 |
| 20260510060055 | 10 | 0 | 0.0 | 0.0 | 0.00 | 0.41 | 0.00 | 92 | 1010.7 |
| 20260510054557 | 10 | 0 | 0.0 | 0.0 | 0.00 | 0.41 | 0.00 | 92 | 1011.0 |
| 20260510053053 | 10 | 0 | 0.0 | 0.0 | 0.00 | 0.41 | 0.00 | 92 | 1011.1 |
| 20260510051559 | 10 | 0 | 0.0 | 0.0 | 0.00 | 0.41 | 0.00 | 92 | 1011.0 |
| 20260510050054 | 10 | 0 | 0.0 | 0.0 | 0.00 | 0.41 | 0.00 | 92 | 1011.0 |
| 20260510044637 | 9 | 0 | 0.0 | 0.0 | 0.00 | 0.41 | 0.00 | 92 | 1011.1 |
| 20260510043054 | 9 | 0 | 0.0 | 0.0 | 0.00 | 0.41 | 0.00 | 91 | 1011.2 |
| 20260510041554 | 9 | 0 | 0.0 | 0.0 | 0.00 | 0.41 | 0.00 | 91 | 1011.2 |
| 20260510040055 | 9 | 0 | 0.0 | 0.0 | 0.00 | 0.41 | 0.00 | 91 | 1011.1 |
| 20260510034554 | 10 | 0 | 0.0 | 0.0 | 0.00 | 0.41 | 0.41 | 91 | 1010.7 |
| 20260510033056 | 10 | 0 | 0.0 | 0.0 | 0.00 | 0.41 | 0.41 | 91 | 1010.4 |
| 20260510031557 | 10 | 0 | 0.0 | 0.0 | 0.00 | 0.41 | 0.41 | 90 | 1010.5 |
| 20260510030051 | 10 | 0 | 0.0 | 0.0 | 0.00 | 0.41 | 0.41 | 90 | 1010.5 |
| 20260510024555 | 10 | 0 | 0.0 | 0.0 | 0.00 | 0.41 | 0.41 | 90 | 1010.5 |
| 20260510023054 | 10 | 0 | 0.0 | 0.0 | 0.00 | 0.41 | 0.41 | 90 | 1010.5 |
| 20260510021554 | 10 | 0 | 0.0 | 0.0 | 0.00 | 0.41 | 0.41 | 90 | 1010.7 |
| 20260510020054 | 11 | 0 | 0.0 | 0.0 | 0.00 | 0.41 | 0.41 | 90 | 1010.7 |
| 20260510014554 | 11 | 0 | 0.0 | 0.0 | 0.00 | 0.41 | 0.41 | 89 | 1010.7 |
| 20260510013054 | 11 | 0 | 0.0 | 0.0 | 0.00 | 0.41 | 0.41 | 89 | 1010.7 |
| 20260510011558 | 11 | 0 | 0.0 | 0.0 | 0.00 | 0.41 | 0.41 | 89 | 1010.6 |
| 20260510010124 | 11 | 0 | 0.0 | 0.0 | 0.00 | 0.41 | 0.41 | 88 | 1010.4 |
| 20260510004553 | 12 | 0 | 0.0 | 0.0 | 0.00 | 0.41 | 0.41 | 88 | 1010.4 |
| 20260510003054 | 12 | 0 | 0.0 | 0.0 | 0.00 | 0.41 | 0.41 | 87 | 1010.3 |
| 20260510001556 | 12 | 0 | 0.0 | 0.0 | 0.00 | 0.41 | 0.41 | 86 | 1010.2 |
| 20260510000058 | 13 | 0 | 0.0 | 0.0 | 0.00 | 0.41 | 0.41 | 86 | 1010.1 |
| 20260509234618 | 13 | 0 | 0.0 | 0.0 | 0.00 | 0.41 | 0.41 | 86 | 1010.2 |
| 20260509233056 | 13 | 0 | 0.0 | 0.0 | 0.00 | 0.41 | 0.41 | 86 | 1010.1 |
| 20260509231553 | 14 | 0 | 0.0 | 1.6 | 0.00 | 0.41 | 0.41 | 86 | 1009.9 |
| 20260509230100 | 14 | 0 | 0.0 | 1.6 | 0.05 | 0.41 | 0.41 | 86 | 1010.0 |
| 20260509224555 | 14 | 0 | 0.0 | 3.2 | 0.23 | 0.41 | 0.41 | 86 | 1010.1 |
| 20260509223055 | 14 | 0 | 0.0 | 3.2 | 0.33 | 0.41 | 0.41 | 87 | 1010.2 |
| 20260509221554 | 13 | 0 | 0.0 | 3.2 | 0.33 | 0.41 | 0.41 | 86 | 1010.3 |